Terminal Aerodrome Forecast
Issued by NWS Upton, NY

Home | Current Version | Previous Version | Text Only | Print | Product List | Glossary On
Versions: 1 2 3 4 5 6 7 8 9 10 11 12 13 14 15 16 17 18 19 20 21 22 23 24 25 26 27 28 29 30 31 32 33 34
000
FTUS41 KOKX 221531 AAB
TAFISP
TAF AMD
KISP 221531Z 2216/2312 19010KT P6SM SCT050 BKN250
     FM222300 20007KT P6SM BKN250
     FM230500 20006KT 5SM BR SCT005 BKN150=

USA.gov is the U.S. government's official web portal to all federal, state and local government web resources and services.